sensor_id;sensor_type;location;lat;lon;timestamp;noise_LAeq;noise_LA_min;noise_LA_max;noise_LA01;noise_LA95
72028;Laerm;59781;52.090;5.030;2023-03-23T00:01:28;46.97;39.45;73.10;;
72028;Laerm;59781;52.090;5.030;2023-03-23T00:03:57;44.23;39.17;65.13;;
72028;Laerm;59781;52.090;5.030;2023-03-23T00:06:27;46.44;38.31;72.38;;
72028;Laerm;59781;52.090;5.030;2023-03-23T00:08:54;42.33;38.21;61.40;;
72028;Laerm;59781;52.090;5.030;2023-03-23T00:11:28;44.71;39.01;65.52;;
72028;Laerm;59781;52.090;5.030;2023-03-23T00:13:57;43.17;38.50;62.73;;
72028;Laerm;59781;52.090;5.030;2023-03-23T00:16:25;41.75;37.70;56.05;;
72028;Laerm;59781;52.090;5.030;2023-03-23T00:19:09;42.20;38.98;56.45;;
72028;Laerm;59781;52.090;5.030;2023-03-23T00:21:38;49.10;38.18;75.31;;
72028;Laerm;59781;52.090;5.030;2023-03-23T00:24:11;41.89;37.64;58.28;;
72028;Laerm;59781;52.090;5.030;2023-03-23T00:26:40;41.63;37.72;57.29;;
72028;Laerm;59781;52.090;5.030;2023-03-23T00:29:17;43.22;37.91;66.72;;
72028;Laerm;59781;52.090;5.030;2023-03-23T00:31:45;42.13;38.09;58.99;;
72028;Laerm;59781;52.090;5.030;2023-03-23T00:34:18;43.55;38.87;69.17;;
72028;Laerm;59781;52.090;5.030;2023-03-23T00:36:49;41.36;38.17;61.28;;
72028;Laerm;59781;52.090;5.030;2023-03-23T00:39:17;41.26;38.15;48.24;;
72028;Laerm;59781;52.090;5.030;2023-03-23T00:41:45;42.22;38.40;58.34;;
72028;Laerm;59781;52.090;5.030;2023-03-23T00:44:11;44.86;38.19;69.55;;
72028;Laerm;59781;52.090;5.030;2023-03-23T00:46:46;41.17;38.27;48.18;;
72028;Laerm;59781;52.090;5.030;2023-03-23T00:49:20;42.29;37.99;62.20;;
72028;Laerm;59781;52.090;5.030;2023-03-23T00:51:56;40.98;37.72;52.78;;
72028;Laerm;59781;52.090;5.030;2023-03-23T00:54:24;41.43;38.19;53.13;;
72028;Laerm;59781;52.090;5.030;2023-03-23T00:56:50;41.24;37.69;58.85;;
72028;Laerm;59781;52.090;5.030;2023-03-23T00:59:17;39.70;37.18;46.94;;
72028;Laerm;59781;52.090;5.030;2023-03-23T01:01:44;40.78;37.12;49.33;;
72028;Laerm;59781;52.090;5.030;2023-03-23T01:04:10;40.91;37.47;48.25;;
72028;Laerm;59781;52.090;5.030;2023-03-23T01:06:40;42.49;38.05;63.93;;
72028;Laerm;59781;52.090;5.030;2023-03-23T01:09:14;40.50;37.76;49.57;;
72028;Laerm;59781;52.090;5.030;2023-03-23T01:11:41;41.24;37.89;56.95;;
72028;Laerm;59781;52.090;5.030;2023-03-23T01:14:09;41.79;38.57;50.96;;
72028;Laerm;59781;52.090;5.030;2023-03-23T01:16:34;42.98;38.12;61.30;;
72028;Laerm;59781;52.090;5.030;2023-03-23T01:19:00;40.97;38.06;54.85;;
72028;Laerm;59781;52.090;5.030;2023-03-23T01:21:26;40.27;37.91;46.74;;
72028;Laerm;59781;52.090;5.030;2023-03-23T01:23:52;42.19;38.42;58.95;;
72028;Laerm;59781;52.090;5.030;2023-03-23T01:26:25;42.61;38.04;59.35;;
72028;Laerm;59781;52.090;5.030;2023-03-23T01:28:52;41.89;38.05;60.20;;
72028;Laerm;59781;52.090;5.030;2023-03-23T01:31:24;42.00;37.68;55.74;;
72028;Laerm;59781;52.090;5.030;2023-03-23T01:33:52;42.78;38.37;64.23;;
72028;Laerm;59781;52.090;5.030;2023-03-23T01:36:27;41.82;38.00;60.63;;
72028;Laerm;59781;52.090;5.030;2023-03-23T01:38:56;44.38;38.54;62.56;;
72028;Laerm;59781;52.090;5.030;2023-03-23T01:41:24;48.37;38.27;77.64;;
72028;Laerm;59781;52.090;5.030;2023-03-23T01:44:58;41.58;38.18;54.42;;
72028;Laerm;59781;52.090;5.030;2023-03-23T01:47:04;48.20;37.95;78.08;;
72028;Laerm;59781;52.090;5.030;2023-03-23T01:49:39;43.39;38.19;67.30;;
72028;Laerm;59781;52.090;5.030;2023-03-23T01:52:23;48.51;37.66;67.01;;
72028;Laerm;59781;52.090;5.030;2023-03-23T01:54:58;42.99;37.53;64.25;;
72028;Laerm;59781;52.090;5.030;2023-03-23T01:57:26;41.52;37.22;47.66;;
72028;Laerm;59781;52.090;5.030;2023-03-23T01:59:57;47.36;38.15;75.45;;
72028;Laerm;59781;52.090;5.030;2023-03-23T02:02:43;41.27;37.84;59.17;;
72028;Laerm;59781;52.090;5.030;2023-03-23T02:05:19;42.56;38.48;60.07;;
72028;Laerm;59781;52.090;5.030;2023-03-23T02:07:48;41.41;38.04;54.26;;
72028;Laerm;59781;52.090;5.030;2023-03-23T02:10:15;44.73;38.81;64.08;;
72028;Laerm;59781;52.090;5.030;2023-03-23T02:12:42;44.14;37.47;70.58;;
72028;Laerm;59781;52.090;5.030;2023-03-23T02:15:10;42.57;37.97;65.43;;
72028;Laerm;59781;52.090;5.030;2023-03-23T02:18:13;43.92;38.22;66.55;;
72028;Laerm;59781;52.090;5.030;2023-03-23T02:21:17;42.30;37.22;59.65;;
72028;Laerm;59781;52.090;5.030;2023-03-23T02:24:27;43.01;38.16;64.24;;
72028;Laerm;59781;52.090;5.030;2023-03-23T02:27:09;43.50;38.63;65.83;;
72028;Laerm;59781;52.090;5.030;2023-03-23T02:30:14;44.48;38.88;60.70;;
72028;Laerm;59781;52.090;5.030;2023-03-23T02:33:16;48.22;39.47;70.60;;
72028;Laerm;59781;52.090;5.030;2023-03-23T02:36:12;45.02;38.12;65.86;;
72028;Laerm;59781;52.090;5.030;2023-03-23T02:38:55;45.48;38.84;68.12;;
72028;Laerm;59781;52.090;5.030;2023-03-23T02:41:30;43.46;37.81;68.93;;
72028;Laerm;59781;52.090;5.030;2023-03-23T02:44:02;42.18;38.60;61.53;;
72028;Laerm;59781;52.090;5.030;2023-03-23T02:46:30;43.76;38.08;67.73;;
72028;Laerm;59781;52.090;5.030;2023-03-23T02:48:59;44.84;38.82;67.82;;
72028;Laerm;59781;52.090;5.030;2023-03-23T02:51:29;48.93;38.88;72.85;;
72028;Laerm;59781;52.090;5.030;2023-03-23T02:53:57;44.75;39.39;66.06;;
72028;Laerm;59781;52.090;5.030;2023-03-23T02:56:28;44.23;39.27;61.22;;
72028;Laerm;59781;52.090;5.030;2023-03-23T02:58:56;45.60;38.78;69.76;;
72028;Laerm;59781;52.090;5.030;2023-03-23T03:03:52;45.77;38.19;69.58;;
72028;Laerm;59781;52.090;5.030;2023-03-23T03:09:46;41.59;38.87;55.64;;
72028;Laerm;59781;52.090;5.030;2023-03-23T03:12:34;48.44;39.56;73.45;;
72028;Laerm;59781;52.090;5.030;2023-03-23T03:17:53;50.22;39.90;77.41;;
72028;Laerm;59781;52.090;5.030;2023-03-23T03:20:25;47.64;39.52;70.10;;
72028;Laerm;59781;52.090;5.030;2023-03-23T03:22:54;50.55;38.97;77.86;;
72028;Laerm;59781;52.090;5.030;2023-03-23T03:25:24;45.95;39.49;72.60;;
72028;Laerm;59781;52.090;5.030;2023-03-23T03:27:56;47.15;40.23;66.62;;
72028;Laerm;59781;52.090;5.030;2023-03-23T03:30:38;47.23;40.00;68.63;;
72028;Laerm;59781;52.090;5.030;2023-03-23T03:33:05;48.54;39.63;74.39;;
72028;Laerm;59781;52.090;5.030;2023-03-23T03:35:37;49.94;39.99;73.30;;
72028;Laerm;59781;52.090;5.030;2023-03-23T03:38:07;45.84;39.76;64.94;;
72028;Laerm;59781;52.090;5.030;2023-03-23T03:40:35;47.61;39.95;74.26;;
72028;Laerm;59781;52.090;5.030;2023-03-23T03:43:03;48.51;40.83;74.63;;
72028;Laerm;59781;52.090;5.030;2023-03-23T03:45:29;47.58;40.98;67.28;;
72028;Laerm;59781;52.090;5.030;2023-03-23T03:47:55;47.47;40.30;71.51;;
72028;Laerm;59781;52.090;5.030;2023-03-23T03:50:21;44.65;40.23;62.95;;
72028;Laerm;59781;52.090;5.030;2023-03-23T03:52:47;49.92;39.57;73.63;;
72028;Laerm;59781;52.090;5.030;2023-03-23T03:55:13;46.21;40.04;72.35;;
72028;Laerm;59781;52.090;5.030;2023-03-23T03:57:42;44.74;39.95;66.04;;
72028;Laerm;59781;52.090;5.030;2023-03-23T04:00:22;50.56;40.02;78.39;;
72028;Laerm;59781;52.090;5.030;2023-03-23T04:02:50;45.96;40.39;67.93;;
72028;Laerm;59781;52.090;5.030;2023-03-23T04:05:27;45.84;41.12;65.55;;
72028;Laerm;59781;52.090;5.030;2023-03-23T04:07:55;46.54;41.29;68.32;;
72028;Laerm;59781;52.090;5.030;2023-03-23T04:10:31;52.15;41.88;74.30;;
72028;Laerm;59781;52.090;5.030;2023-03-23T04:12:58;51.49;41.65;76.32;;
72028;Laerm;59781;52.090;5.030;2023-03-23T04:15:44;48.54;41.13;75.06;;
72028;Laerm;59781;52.090;5.030;2023-03-23T04:18:12;51.56;41.19;73.02;;
72028;Laerm;59781;52.090;5.030;2023-03-23T04:20:48;45.60;40.87;66.37;;
72028;Laerm;59781;52.090;5.030;2023-03-23T04:23:20;54.18;41.84;86.50;;
72028;Laerm;59781;52.090;5.030;2023-03-23T04:25:49;44.81;41.09;60.31;;
72028;Laerm;59781;52.090;5.030;2023-03-23T04:28:16;47.05;41.05;68.17;;
72028;Laerm;59781;52.090;5.030;2023-03-23T04:30:56;58.71;42.26;87.43;;
72028;Laerm;59781;52.090;5.030;2023-03-23T04:33:26;50.67;42.07;74.24;;
72028;Laerm;59781;52.090;5.030;2023-03-23T04:35:55;51.08;41.99;73.07;;
72028;Laerm;59781;52.090;5.030;2023-03-23T04:38:31;49.67;43.04;71.51;;
72028;Laerm;59781;52.090;5.030;2023-03-23T04:41:01;47.84;42.38;75.58;;
72028;Laerm;59781;52.090;5.030;2023-03-23T04:43:43;51.31;42.34;73.37;;
72028;Laerm;59781;52.090;5.030;2023-03-23T04:46:41;48.48;42.51;75.05;;
72028;Laerm;59781;52.090;5.030;2023-03-23T04:49:10;46.25;43.25;63.54;;
72028;Laerm;59781;52.090;5.030;2023-03-23T04:51:38;52.09;43.34;73.53;;
72028;Laerm;59781;52.090;5.030;2023-03-23T04:54:25;51.51;43.39;75.61;;
72028;Laerm;59781;52.090;5.030;2023-03-23T04:56:55;48.77;43.10;67.25;;
72028;Laerm;59781;52.090;5.030;2023-03-23T04:59:21;51.49;43.80;72.60;;
72028;Laerm;59781;52.090;5.030;2023-03-23T05:02:07;53.23;45.44;76.90;;
72028;Laerm;59781;52.090;5.030;2023-03-23T05:04:33;53.72;44.35;77.79;;
72028;Laerm;59781;52.090;5.030;2023-03-23T05:07:08;53.26;44.05;71.93;;
72028;Laerm;59781;52.090;5.030;2023-03-23T05:09:39;53.54;45.30;72.87;;
72028;Laerm;59781;52.090;5.030;2023-03-23T05:12:09;62.52;44.85;83.31;;
72028;Laerm;59781;52.090;5.030;2023-03-23T05:14:46;63.28;47.93;86.03;;
72028;Laerm;59781;52.090;5.030;2023-03-23T05:17:15;63.58;47.72;86.23;;
72028;Laerm;59781;52.090;5.030;2023-03-23T05:19:43;61.51;45.52;82.37;;
72028;Laerm;59781;52.090;5.030;2023-03-23T05:22:29;56.47;45.82;81.53;;
72028;Laerm;59781;52.090;5.030;2023-03-23T05:24:59;58.42;45.00;78.82;;
72028;Laerm;59781;52.090;5.030;2023-03-23T05:27:29;68.77;44.71;80.67;;
72028;Laerm;59781;52.090;5.030;2023-03-23T05:29:58;72.51;46.17;86.63;;
72028;Laerm;59781;52.090;5.030;2023-03-23T05:32:25;63.96;46.37;86.22;;
72028;Laerm;59781;52.090;5.030;2023-03-23T05:34:59;51.07;44.99;79.11;;
72028;Laerm;59781;52.090;5.030;2023-03-23T05:37:27;53.52;45.86;83.47;;
72028;Laerm;59781;52.090;5.030;2023-03-23T05:40:06;60.31;45.84;80.75;;
72028;Laerm;59781;52.090;5.030;2023-03-23T05:42:41;58.91;46.83;75.95;;
72028;Laerm;59781;52.090;5.030;2023-03-23T05:45:15;54.55;46.82;77.64;;
72028;Laerm;59781;52.090;5.030;2023-03-23T05:47:42;58.33;45.93;83.30;;
72028;Laerm;59781;52.090;5.030;2023-03-23T05:50:13;50.72;47.38;63.89;;
72028;Laerm;59781;52.090;5.030;2023-03-23T05:52:40;49.11;45.88;65.68;;
72028;Laerm;59781;52.090;5.030;2023-03-23T05:55:12;49.96;45.49;69.15;;
72028;Laerm;59781;52.090;5.030;2023-03-23T05:57:40;49.94;46.56;65.11;;
72028;Laerm;59781;52.090;5.030;2023-03-23T06:00:17;52.14;45.87;67.88;;
72028;Laerm;59781;52.090;5.030;2023-03-23T06:02:55;55.71;45.40;76.75;;
72028;Laerm;59781;52.090;5.030;2023-03-23T06:05:28;55.58;45.23;75.99;;
72028;Laerm;59781;52.090;5.030;2023-03-23T06:07:55;59.56;46.04;80.58;;
72028;Laerm;59781;52.090;5.030;2023-03-23T06:10:21;54.57;47.13;75.57;;
72028;Laerm;59781;52.090;5.030;2023-03-23T06:12:53;56.49;45.92;74.48;;
72028;Laerm;59781;52.090;5.030;2023-03-23T06:15:40;55.14;47.99;73.89;;
72028;Laerm;59781;52.090;5.030;2023-03-23T06:18:08;54.96;46.31;74.74;;
72028;Laerm;59781;52.090;5.030;2023-03-23T06:20:44;61.70;50.43;85.37;;
72028;Laerm;59781;52.090;5.030;2023-03-23T06:23:26;62.14;47.88;84.39;;
72028;Laerm;59781;52.090;5.030;2023-03-23T06:25:57;51.88;47.35;60.79;;
72028;Laerm;59781;52.090;5.030;2023-03-23T06:28:24;50.46;45.46;66.32;;
72028;Laerm;59781;52.090;5.030;2023-03-23T06:30:50;52.41;47.33;67.78;;
72028;Laerm;59781;52.090;5.030;2023-03-23T06:33:17;51.05;46.22;68.37;;
72028;Laerm;59781;52.090;5.030;2023-03-23T06:36:02;50.61;46.19;66.16;;
72028;Laerm;59781;52.090;5.030;2023-03-23T06:38:42;49.89;46.08;56.44;;
72028;Laerm;59781;52.090;5.030;2023-03-23T06:41:08;50.76;45.07;61.71;;
72028;Laerm;59781;52.090;5.030;2023-03-23T06:43:34;51.48;44.43;66.79;;
72028;Laerm;59781;52.090;5.030;2023-03-23T06:46:13;49.53;45.35;65.49;;
72028;Laerm;59781;52.090;5.030;2023-03-23T06:48:39;48.87;44.84;63.52;;
72028;Laerm;59781;52.090;5.030;2023-03-23T06:51:06;47.30;43.41;62.34;;
72028;Laerm;59781;52.090;5.030;2023-03-23T06:53:33;51.58;44.39;75.27;;
72028;Laerm;59781;52.090;5.030;2023-03-23T06:56:00;48.61;44.42;56.59;;
72028;Laerm;59781;52.090;5.030;2023-03-23T06:58:26;49.49;45.33;58.72;;
72028;Laerm;59781;52.090;5.030;2023-03-23T07:00:57;50.21;44.56;69.57;;
72028;Laerm;59781;52.090;5.030;2023-03-23T07:03:30;52.58;45.55;74.54;;
72028;Laerm;59781;52.090;5.030;2023-03-23T07:05:58;49.13;44.64;68.96;;
72028;Laerm;59781;52.090;5.030;2023-03-23T07:08:28;49.55;45.35;64.08;;
72028;Laerm;59781;52.090;5.030;2023-03-23T07:10:55;49.00;45.51;60.94;;
72028;Laerm;59781;52.090;5.030;2023-03-23T07:13:25;50.00;45.50;68.85;;
72028;Laerm;59781;52.090;5.030;2023-03-23T07:15:55;49.69;45.55;64.62;;
72028;Laerm;59781;52.090;5.030;2023-03-23T07:18:21;49.40;45.86;55.38;;
72028;Laerm;59781;52.090;5.030;2023-03-23T07:20:51;49.29;44.94;69.12;;
72028;Laerm;59781;52.090;5.030;2023-03-23T07:23:19;50.91;46.89;65.69;;
72028;Laerm;59781;52.090;5.030;2023-03-23T07:25:59;49.64;46.50;57.07;;
72028;Laerm;59781;52.090;5.030;2023-03-23T07:28:31;50.30;46.54;67.71;;
72028;Laerm;59781;52.090;5.030;2023-03-23T07:31:04;50.18;45.87;61.23;;
72028;Laerm;59781;52.090;5.030;2023-03-23T07:33:30;50.80;46.16;66.99;;
72028;Laerm;59781;52.090;5.030;2023-03-23T07:36:02;49.56;45.87;61.20;;
72028;Laerm;59781;52.090;5.030;2023-03-23T07:38:29;50.75;45.25;77.23;;
72028;Laerm;59781;52.090;5.030;2023-03-23T07:40:57;53.46;45.16;80.17;;
72028;Laerm;59781;52.090;5.030;2023-03-23T07:43:24;49.20;45.23;71.81;;
72028;Laerm;59781;52.090;5.030;2023-03-23T07:45:52;49.26;45.68;66.76;;
72028;Laerm;59781;52.090;5.030;2023-03-23T07:48:19;49.39;46.04;62.81;;
72028;Laerm;59781;52.090;5.030;2023-03-23T07:50:45;49.45;45.92;55.85;;
72028;Laerm;59781;52.090;5.030;2023-03-23T07:53:13;53.86;45.95;74.99;;
72028;Laerm;59781;52.090;5.030;2023-03-23T07:55:40;50.92;44.61;65.22;;
72028;Laerm;59781;52.090;5.030;2023-03-23T07:58:16;49.56;45.29;71.83;;
72028;Laerm;59781;52.090;5.030;2023-03-23T08:00:48;49.32;45.80;65.90;;
72028;Laerm;59781;52.090;5.030;2023-03-23T08:03:17;48.40;44.84;60.03;;
72028;Laerm;59781;52.090;5.030;2023-03-23T08:06:07;48.79;45.37;57.35;;
72028;Laerm;59781;52.090;5.030;2023-03-23T08:08:57;54.81;45.33;69.18;;
72028;Laerm;59781;52.090;5.030;2023-03-23T08:11:49;48.87;44.78;61.57;;
72028;Laerm;59781;52.090;5.030;2023-03-23T08:14:49;51.31;45.83;70.85;;
72028;Laerm;59781;52.090;5.030;2023-03-23T08:17:43;49.58;45.00;70.22;;
72028;Laerm;59781;52.090;5.030;2023-03-23T08:20:19;54.41;43.65;79.55;;
72028;Laerm;59781;52.090;5.030;2023-03-23T08:23:05;50.70;43.93;70.35;;
72028;Laerm;59781;52.090;5.030;2023-03-23T08:25:42;55.17;45.40;81.25;;
72028;Laerm;59781;52.090;5.030;2023-03-23T08:28:30;48.22;44.40;59.23;;
72028;Laerm;59781;52.090;5.030;2023-03-23T08:31:25;50.49;44.51;72.19;;
72028;Laerm;59781;52.090;5.030;2023-03-23T08:34:20;47.82;44.46;62.78;;
72028;Laerm;59781;52.090;5.030;2023-03-23T08:37:02;49.03;44.25;69.69;;
72028;Laerm;59781;52.090;5.030;2023-03-23T08:39:52;50.47;45.11;69.69;;
72028;Laerm;59781;52.090;5.030;2023-03-23T08:42:43;48.14;44.31;69.18;;
72028;Laerm;59781;52.090;5.030;2023-03-23T08:45:27;58.60;43.19;86.01;;
72028;Laerm;59781;52.090;5.030;2023-03-23T08:48:16;52.95;43.68;74.03;;
72028;Laerm;59781;52.090;5.030;2023-03-23T08:51:01;48.99;44.91;63.68;;
72028;Laerm;59781;52.090;5.030;2023-03-23T08:53:45;51.54;45.41;73.55;;
72028;Laerm;59781;52.090;5.030;2023-03-23T08:56:14;52.03;44.54;72.59;;
72028;Laerm;59781;52.090;5.030;2023-03-23T08:59:00;49.55;45.39;65.10;;
72028;Laerm;59781;52.090;5.030;2023-03-23T09:01:37;55.87;44.61;81.69;;
72028;Laerm;59781;52.090;5.030;2023-03-23T09:04:14;49.39;44.67;69.08;;
72028;Laerm;59781;52.090;5.030;2023-03-23T09:06:50;49.22;44.69;67.39;;
72028;Laerm;59781;52.090;5.030;2023-03-23T09:09:16;49.71;44.64;67.70;;
72028;Laerm;59781;52.090;5.030;2023-03-23T09:11:41;49.47;44.69;73.10;;
72028;Laerm;59781;52.090;5.030;2023-03-23T09:14:07;49.42;43.52;74.70;;
72028;Laerm;59781;52.090;5.030;2023-03-23T09:16:34;49.02;44.62;60.48;;
72028;Laerm;59781;52.090;5.030;2023-03-23T09:19:01;53.33;45.03;86.86;;
72028;Laerm;59781;52.090;5.030;2023-03-23T09:21:28;49.80;44.06;68.93;;
72028;Laerm;59781;52.090;5.030;2023-03-23T09:23:55;51.33;44.56;73.24;;
72028;Laerm;59781;52.090;5.030;2023-03-23T09:26:25;51.18;44.16;75.22;;
72028;Laerm;59781;52.090;5.030;2023-03-23T09:28:51;51.15;43.43;73.03;;
72028;Laerm;59781;52.090;5.030;2023-03-23T09:31:17;50.43;44.25;73.41;;
72028;Laerm;59781;52.090;5.030;2023-03-23T09:33:46;52.36;43.01;75.93;;
72028;Laerm;59781;52.090;5.030;2023-03-23T09:36:12;49.11;43.80;67.26;;
72028;Laerm;59781;52.090;5.030;2023-03-23T09:38:40;49.96;42.84;75.08;;
72028;Laerm;59781;52.090;5.030;2023-03-23T09:41:36;47.48;43.41;63.87;;
72028;Laerm;59781;52.090;5.030;2023-03-23T09:44:57;49.49;43.20;65.06;;
72028;Laerm;59781;52.090;5.030;2023-03-23T09:50:12;50.92;44.37;67.69;;
72028;Laerm;59781;52.090;5.030;2023-03-23T09:53:14;51.73;43.17;75.61;;
72028;Laerm;59781;52.090;5.030;2023-03-23T09:55:43;53.54;43.51;80.32;;
72028;Laerm;59781;52.090;5.030;2023-03-23T09:58:20;62.04;43.99;82.57;;
72028;Laerm;59781;52.090;5.030;2023-03-23T10:01:02;51.37;44.02;72.84;;
72028;Laerm;59781;52.090;5.030;2023-03-23T10:03:39;49.83;42.70;72.14;;
72028;Laerm;59781;52.090;5.030;2023-03-23T10:06:12;47.15;43.04;60.75;;
72028;Laerm;59781;52.090;5.030;2023-03-23T10:08:52;51.63;43.86;75.14;;
72028;Laerm;59781;52.090;5.030;2023-03-23T10:14:18;50.99;44.40;72.75;;
72028;Laerm;59781;52.090;5.030;2023-03-23T10:22:24;51.42;44.56;70.97;;
72028;Laerm;59781;52.090;5.030;2023-03-23T10:25:16;55.54;43.11;76.35;;
72028;Laerm;59781;52.090;5.030;2023-03-23T10:27:45;54.50;44.14;76.29;;
72028;Laerm;59781;52.090;5.030;2023-03-23T10:30:26;58.31;45.30;87.41;;
72028;Laerm;59781;52.090;5.030;2023-03-23T10:33:02;53.35;43.90;79.95;;
72028;Laerm;59781;52.090;5.030;2023-03-23T10:35:52;51.69;44.07;70.33;;
72028;Laerm;59781;52.090;5.030;2023-03-23T10:38:36;56.60;44.98;80.26;;
72028;Laerm;59781;52.090;5.030;2023-03-23T10:41:15;51.83;43.02;74.19;;
72028;Laerm;59781;52.090;5.030;2023-03-23T10:43:44;55.59;45.65;75.23;;
72028;Laerm;59781;52.090;5.030;2023-03-23T10:46:31;51.47;45.49;71.01;;
72028;Laerm;59781;52.090;5.030;2023-03-23T10:49:07;51.61;45.19;72.57;;
72028;Laerm;59781;52.090;5.030;2023-03-23T10:51:44;52.15;44.39;73.43;;
72028;Laerm;59781;52.090;5.030;2023-03-23T10:54:11;48.85;43.30;64.05;;
72028;Laerm;59781;52.090;5.030;2023-03-23T10:56:44;51.36;44.66;75.84;;
72028;Laerm;59781;52.090;5.030;2023-03-23T10:59:29;54.43;45.39;75.23;;
72028;Laerm;59781;52.090;5.030;2023-03-23T11:02:02;49.67;43.69;59.39;;
72028;Laerm;59781;52.090;5.030;2023-03-23T11:04:30;51.28;43.47;70.05;;
72028;Laerm;59781;52.090;5.030;2023-03-23T11:07:01;50.34;44.27;69.78;;
72028;Laerm;59781;52.090;5.030;2023-03-23T11:09:52;55.03;45.47;72.37;;
72028;Laerm;59781;52.090;5.030;2023-03-23T11:12:20;50.51;43.45;64.87;;
72028;Laerm;59781;52.090;5.030;2023-03-23T11:14:46;46.71;43.04;58.78;;
72028;Laerm;59781;52.090;5.030;2023-03-23T11:17:27;51.06;42.70;73.14;;
72028;Laerm;59781;52.090;5.030;2023-03-23T11:19:53;54.20;43.97;75.41;;
72028;Laerm;59781;52.090;5.030;2023-03-23T11:22:31;51.20;42.99;68.73;;
72028;Laerm;59781;52.090;5.030;2023-03-23T11:25:05;50.54;43.69;72.01;;
72028;Laerm;59781;52.090;5.030;2023-03-23T11:27:33;47.33;42.92;60.23;;
72028;Laerm;59781;52.090;5.030;2023-03-23T11:30:26;48.86;43.64;66.20;;
72028;Laerm;59781;52.090;5.030;2023-03-23T11:33:01;50.87;44.72;67.22;;
72028;Laerm;59781;52.090;5.030;2023-03-23T11:35:29;50.62;44.78;72.07;;
72028;Laerm;59781;52.090;5.030;2023-03-23T11:37:58;48.61;43.70;63.73;;
72028;Laerm;59781;52.090;5.030;2023-03-23T11:40:30;49.58;43.94;71.57;;
72028;Laerm;59781;52.090;5.030;2023-03-23T11:43:09;49.69;44.17;66.94;;
72028;Laerm;59781;52.090;5.030;2023-03-23T11:45:37;48.02;44.62;60.63;;
72028;Laerm;59781;52.090;5.030;2023-03-23T11:51:44;48.84;43.72;67.28;;
72028;Laerm;59781;52.090;5.030;2023-03-23T11:54:30;52.58;44.43;73.15;;
72028;Laerm;59781;52.090;5.030;2023-03-23T11:56:57;49.50;44.50;70.95;;
72028;Laerm;59781;52.090;5.030;2023-03-23T11:59:33;48.60;43.51;69.96;;
72028;Laerm;59781;52.090;5.030;2023-03-23T12:02:32;55.67;43.10;84.48;;
72028;Laerm;59781;52.090;5.030;2023-03-23T12:14:40;48.47;42.68;76.78;;
72028;Laerm;59781;52.090;5.030;2023-03-23T12:17:49;48.02;43.33;65.73;;
72028;Laerm;59781;52.090;5.030;2023-03-23T12:20:42;46.17;41.62;52.31;;
72028;Laerm;59781;52.090;5.030;2023-03-23T12:23:36;47.69;43.31;64.86;;
72028;Laerm;59781;52.090;5.030;2023-03-23T12:26:28;49.91;43.29;74.97;;
72028;Laerm;59781;52.090;5.030;2023-03-23T12:31:44;49.75;43.28;74.34;;
72028;Laerm;59781;52.090;5.030;2023-03-23T12:34:30;49.88;44.25;74.21;;
72028;Laerm;59781;52.090;5.030;2023-03-23T12:37:27;52.17;43.68;78.41;;
72028;Laerm;59781;52.090;5.030;2023-03-23T12:49:21;47.63;43.62;61.93;;
72028;Laerm;59781;52.090;5.030;2023-03-23T12:52:14;51.61;44.14;68.36;;
72028;Laerm;59781;52.090;5.030;2023-03-23T12:55:11;54.24;43.01;83.69;;
72028;Laerm;59781;52.090;5.030;2023-03-23T12:57:50;47.50;42.80;61.93;;
72028;Laerm;59781;52.090;5.030;2023-03-23T13:00:30;50.07;45.20;66.82;;
72028;Laerm;59781;52.090;5.030;2023-03-23T13:03:28;48.01;43.45;62.29;;
72028;Laerm;59781;52.090;5.030;2023-03-23T13:06:20;46.49;43.03;57.35;;
72028;Laerm;59781;52.090;5.030;2023-03-23T13:09:00;49.90;43.03;63.99;;
72028;Laerm;59781;52.090;5.030;2023-03-23T13:11:35;47.52;43.61;62.80;;
72028;Laerm;59781;52.090;5.030;2023-03-23T13:23:31;49.16;44.47;64.95;;
72028;Laerm;59781;52.090;5.030;2023-03-23T13:28:28;50.12;44.62;70.43;;
72028;Laerm;59781;52.090;5.030;2023-03-23T13:31:12;55.66;44.69;74.23;;
72028;Laerm;59781;52.090;5.030;2023-03-23T13:33:51;54.70;43.23;76.50;;
72028;Laerm;59781;52.090;5.030;2023-03-23T13:36:41;48.51;43.84;63.69;;
72028;Laerm;59781;52.090;5.030;2023-03-23T13:39:24;52.04;43.94;66.48;;
72028;Laerm;59781;52.090;5.030;2023-03-23T13:50:24;55.19;44.06;88.71;;
72028;Laerm;59781;52.090;5.030;2023-03-23T13:52:57;48.32;44.06;64.71;;
72028;Laerm;59781;52.090;5.030;2023-03-23T13:55:50;48.57;43.81;64.92;;
72028;Laerm;59781;52.090;5.030;2023-03-23T13:58:25;49.05;44.79;71.73;;
72028;Laerm;59781;52.090;5.030;2023-03-23T14:01:13;50.62;43.91;69.49;;
72028;Laerm;59781;52.090;5.030;2023-03-23T14:03:48;54.40;44.05;76.28;;
72028;Laerm;59781;52.090;5.030;2023-03-23T14:06:23;50.12;44.28;76.85;;
72028;Laerm;59781;52.090;5.030;2023-03-23T14:14:34;47.09;43.81;62.68;;
72028;Laerm;59781;52.090;5.030;2023-03-23T14:17:18;48.13;44.36;66.75;;
72028;Laerm;59781;52.090;5.030;2023-03-23T14:19:51;48.93;43.82;64.24;;
72028;Laerm;59781;52.090;5.030;2023-03-23T14:22:37;53.23;42.69;77.15;;
72028;Laerm;59781;52.090;5.030;2023-03-23T14:25:14;49.05;43.74;68.77;;
72028;Laerm;59781;52.090;5.030;2023-03-23T14:27:42;50.28;43.63;68.59;;
72028;Laerm;59781;52.090;5.030;2023-03-23T14:30:15;50.03;42.52;67.25;;
72028;Laerm;59781;52.090;5.030;2023-03-23T14:32:42;45.85;42.59;51.56;;
72028;Laerm;59781;52.090;5.030;2023-03-23T14:35:29;45.91;42.21;58.78;;
72028;Laerm;59781;52.090;5.030;2023-03-23T14:37:56;46.32;41.72;58.83;;
72028;Laerm;59781;52.090;5.030;2023-03-23T14:40:26;46.99;42.57;62.45;;
72028;Laerm;59781;52.090;5.030;2023-03-23T14:42:52;47.03;43.09;61.51;;
72028;Laerm;59781;52.090;5.030;2023-03-23T14:45:22;46.53;42.52;58.77;;
72028;Laerm;59781;52.090;5.030;2023-03-23T14:47:52;48.84;42.12;69.20;;
72028;Laerm;59781;52.090;5.030;2023-03-23T14:50:37;46.88;42.89;62.12;;
72028;Laerm;59781;52.090;5.030;2023-03-23T14:53:28;47.76;42.73;67.07;;
72028;Laerm;59781;52.090;5.030;2023-03-23T14:55:55;46.36;41.59;60.19;;
72028;Laerm;59781;52.090;5.030;2023-03-23T14:58:23;45.43;42.08;56.18;;
72028;Laerm;59781;52.090;5.030;2023-03-23T15:01:00;47.17;42.73;63.67;;
72028;Laerm;59781;52.090;5.030;2023-03-23T15:03:35;48.45;42.89;58.12;;
72028;Laerm;59781;52.090;5.030;2023-03-23T15:06:14;46.33;42.21;65.02;;
72028;Laerm;59781;52.090;5.030;2023-03-23T15:08:41;46.21;42.20;59.08;;
72028;Laerm;59781;52.090;5.030;2023-03-23T15:13:48;45.07;41.17;53.61;;
72028;Laerm;59781;52.090;5.030;2023-03-23T15:16:31;54.64;41.31;74.41;;
72028;Laerm;59781;52.090;5.030;2023-03-23T15:19:06;47.87;42.07;57.12;;
72028;Laerm;59781;52.090;5.030;2023-03-23T15:21:57;48.76;43.79;61.00;;
72028;Laerm;59781;52.090;5.030;2023-03-23T15:24:39;48.23;43.36;57.58;;
72028;Laerm;59781;52.090;5.030;2023-03-23T15:29:32;46.42;42.78;59.90;;
72028;Laerm;59781;52.090;5.030;2023-03-23T15:31:58;48.15;43.17;61.23;;
72028;Laerm;59781;52.090;5.030;2023-03-23T15:37:01;47.62;42.56;71.07;;
72028;Laerm;59781;52.090;5.030;2023-03-23T15:39:29;46.66;43.53;59.64;;
72028;Laerm;59781;52.090;5.030;2023-03-23T15:41:57;47.56;42.98;64.92;;
72028;Laerm;59781;52.090;5.030;2023-03-23T15:44:32;50.42;43.09;76.94;;
72028;Laerm;59781;52.090;5.030;2023-03-23T15:47:16;46.31;42.90;61.41;;